sensor_id;sensor_type;location;lat;lon;timestamp;noise_LAeq;noise_LA_min;noise_LA_max;noise_LA01;noise_LA95
85141;Laerm;75501;52.586;13.284;2024-01-10T00:00:41;57.58;54.19;73.69;;
85141;Laerm;75501;52.586;13.284;2024-01-10T00:03:10;57.60;53.96;73.18;;
85141;Laerm;75501;52.586;13.284;2024-01-10T00:05:38;57.55;54.28;73.26;;
85141;Laerm;75501;52.586;13.284;2024-01-10T00:08:07;57.59;54.13;73.02;;
85141;Laerm;75501;52.586;13.284;2024-01-10T00:10:36;57.35;54.33;66.42;;
85141;Laerm;75501;52.586;13.284;2024-01-10T00:13:04;57.37;53.94;73.34;;
85141;Laerm;75501;52.586;13.284;2024-01-10T00:15:32;57.38;54.09;72.41;;
85141;Laerm;75501;52.586;13.284;2024-01-10T00:18:00;57.73;54.22;74.14;;
85141;Laerm;75501;52.586;13.284;2024-01-10T00:20:28;57.69;54.50;73.65;;
85141;Laerm;75501;52.586;13.284;2024-01-10T00:22:57;57.62;54.21;73.76;;
85141;Laerm;75501;52.586;13.284;2024-01-10T00:25:26;57.44;54.39;72.43;;
85141;Laerm;75501;52.586;13.284;2024-01-10T00:27:54;57.33;54.17;66.56;;
85141;Laerm;75501;52.586;13.284;2024-01-10T00:30:22;57.37;54.20;73.19;;
85141;Laerm;75501;52.586;13.284;2024-01-10T00:32:50;57.39;54.17;72.91;;
85141;Laerm;75501;52.586;13.284;2024-01-10T00:35:19;57.69;54.32;72.60;;
85141;Laerm;75501;52.586;13.284;2024-01-10T00:37:47;57.63;54.38;73.24;;
85141;Laerm;75501;52.586;13.284;2024-01-10T00:40:15;57.48;54.33;72.83;;
85141;Laerm;75501;52.586;13.284;2024-01-10T00:42:44;57.31;54.07;73.42;;
85141;Laerm;75501;52.586;13.284;2024-01-10T00:45:13;57.45;54.41;66.86;;
85141;Laerm;75501;52.586;13.284;2024-01-10T00:47:41;57.70;54.16;73.38;;
85141;Laerm;75501;52.586;13.284;2024-01-10T00:50:09;57.77;54.63;72.93;;
85141;Laerm;75501;52.586;13.284;2024-01-10T00:52:37;57.43;54.29;73.27;;
85141;Laerm;75501;52.586;13.284;2024-01-10T00:55:06;57.52;54.32;73.12;;
85141;Laerm;75501;52.586;13.284;2024-01-10T00:57:34;57.66;54.47;73.48;;
85141;Laerm;75501;52.586;13.284;2024-01-10T01:00:05;57.59;54.35;73.64;;
85141;Laerm;75501;52.586;13.284;2024-01-10T01:02:33;57.41;54.35;67.00;;
85141;Laerm;75501;52.586;13.284;2024-01-10T01:05:02;57.24;54.46;72.80;;
85141;Laerm;75501;52.586;13.284;2024-01-10T01:07:30;57.12;54.16;59.81;;
85141;Laerm;75501;52.586;13.284;2024-01-10T01:09:59;57.24;54.06;66.09;;
85141;Laerm;75501;52.586;13.284;2024-01-10T01:12:27;57.21;54.15;72.70;;
85141;Laerm;75501;52.586;13.284;2024-01-10T01:14:55;57.70;54.27;73.54;;
85141;Laerm;75501;52.586;13.284;2024-01-10T01:17:25;58.07;54.61;74.16;;
85141;Laerm;75501;52.586;13.284;2024-01-10T01:19:54;58.02;54.80;66.88;;
85141;Laerm;75501;52.586;13.284;2024-01-10T01:22:22;58.48;54.54;73.97;;
85141;Laerm;75501;52.586;13.284;2024-01-10T01:24:50;58.36;54.78;72.71;;
85141;Laerm;75501;52.586;13.284;2024-01-10T01:27:18;57.52;54.14;73.15;;
85141;Laerm;75501;52.586;13.284;2024-01-10T01:29:46;57.33;54.28;73.35;;
85141;Laerm;75501;52.586;13.284;2024-01-10T01:32:14;57.43;54.31;72.88;;
85141;Laerm;75501;52.586;13.284;2024-01-10T01:34:44;57.22;54.27;72.92;;
85141;Laerm;75501;52.586;13.284;2024-01-10T01:37:12;57.01;54.02;66.46;;
85141;Laerm;75501;52.586;13.284;2024-01-10T01:39:40;57.30;53.93;71.85;;
85141;Laerm;75501;52.586;13.284;2024-01-10T01:42:08;56.78;54.04;72.15;;
85141;Laerm;75501;52.586;13.284;2024-01-10T01:44:36;56.64;53.74;72.47;;
85141;Laerm;75501;52.586;13.284;2024-01-10T01:47:04;56.95;53.92;72.46;;
85141;Laerm;75501;52.586;13.284;2024-01-10T01:49:33;57.16;54.07;72.61;;
85141;Laerm;75501;52.586;13.284;2024-01-10T01:52:04;56.81;53.92;72.12;;
85141;Laerm;75501;52.586;13.284;2024-01-10T01:54:34;56.82;53.94;65.26;;
85141;Laerm;75501;52.586;13.284;2024-01-10T01:57:03;57.55;54.47;67.35;;
85141;Laerm;75501;52.586;13.284;2024-01-10T01:59:32;57.59;54.49;66.78;;
85141;Laerm;75501;52.586;13.284;2024-01-10T02:02:04;57.62;54.29;66.92;;
85141;Laerm;75501;52.586;13.284;2024-01-10T02:04:32;57.65;54.22;67.55;;
85141;Laerm;75501;52.586;13.284;2024-01-10T02:07:03;57.78;54.59;72.86;;
85141;Laerm;75501;52.586;13.284;2024-01-10T02:09:31;57.85;54.60;67.66;;
85141;Laerm;75501;52.586;13.284;2024-01-10T02:11:59;57.83;54.53;73.38;;
85141;Laerm;75501;52.586;13.284;2024-01-10T02:14:28;58.04;54.79;73.46;;
85141;Laerm;75501;52.586;13.284;2024-01-10T02:16:56;58.77;54.86;73.85;;
85141;Laerm;75501;52.586;13.284;2024-01-10T02:19:25;59.35;55.69;73.80;;
85141;Laerm;75501;52.586;13.284;2024-01-10T02:21:55;58.28;54.56;67.23;;
85141;Laerm;75501;52.586;13.284;2024-01-10T02:24:25;58.18;54.50;72.92;;
85141;Laerm;75501;52.586;13.284;2024-01-10T02:26:53;58.24;54.63;74.08;;
85141;Laerm;75501;52.586;13.284;2024-01-10T02:29:21;57.97;54.46;67.67;;
85141;Laerm;75501;52.586;13.284;2024-01-10T02:31:50;57.68;54.25;61.31;;
85141;Laerm;75501;52.586;13.284;2024-01-10T02:34:18;58.01;54.38;73.94;;
85141;Laerm;75501;52.586;13.284;2024-01-10T02:36:46;57.89;54.42;73.70;;
85141;Laerm;75501;52.586;13.284;2024-01-10T02:39:14;57.79;53.91;73.24;;
85141;Laerm;75501;52.586;13.284;2024-01-10T02:41:42;57.75;54.14;72.24;;
85141;Laerm;75501;52.586;13.284;2024-01-10T02:44:12;57.65;53.66;73.15;;
85141;Laerm;75501;52.586;13.284;2024-01-10T02:46:41;57.73;54.17;66.96;;
85141;Laerm;75501;52.586;13.284;2024-01-10T02:49:09;57.92;54.19;73.21;;
85141;Laerm;75501;52.586;13.284;2024-01-10T02:51:37;58.26;54.67;74.34;;
85141;Laerm;75501;52.586;13.284;2024-01-10T02:54:05;58.11;54.28;73.20;;
85141;Laerm;75501;52.586;13.284;2024-01-10T02:56:34;57.89;54.20;73.14;;
85141;Laerm;75501;52.586;13.284;2024-01-10T02:59:02;57.80;53.84;72.87;;
85141;Laerm;75501;52.586;13.284;2024-01-10T03:01:31;57.79;54.15;74.35;;
85141;Laerm;75501;52.586;13.284;2024-01-10T03:04:00;58.05;54.46;67.33;;
85141;Laerm;75501;52.586;13.284;2024-01-10T03:06:28;58.19;54.38;74.14;;
85141;Laerm;75501;52.586;13.284;2024-01-10T03:08:56;59.72;54.66;74.97;;
85141;Laerm;75501;52.586;13.284;2024-01-10T03:11:24;59.67;54.98;74.85;;
85141;Laerm;75501;52.586;13.284;2024-01-10T03:14:02;59.49;55.18;74.24;;
85141;Laerm;75501;52.586;13.284;2024-01-10T03:16:32;60.02;55.87;74.55;;
85141;Laerm;75501;52.586;13.284;2024-01-10T03:19:01;60.64;56.31;69.38;;
85141;Laerm;75501;52.586;13.284;2024-01-10T03:21:29;59.98;54.83;73.73;;
85141;Laerm;75501;52.586;13.284;2024-01-10T03:23:59;58.39;54.50;73.54;;
85141;Laerm;75501;52.586;13.284;2024-01-10T03:26:28;58.13;54.78;68.72;;
85141;Laerm;75501;52.586;13.284;2024-01-10T03:28:57;58.00;54.41;68.20;;
85141;Laerm;75501;52.586;13.284;2024-01-10T03:31:26;57.90;54.20;72.77;;
85141;Laerm;75501;52.586;13.284;2024-01-10T03:33:56;57.80;54.41;66.97;;
85141;Laerm;75501;52.586;13.284;2024-01-10T03:36:25;58.45;54.69;68.04;;
85141;Laerm;75501;52.586;13.284;2024-01-10T03:38:53;58.81;54.99;74.05;;
85141;Laerm;75501;52.586;13.284;2024-01-10T03:41:21;58.52;54.66;74.05;;
85141;Laerm;75501;52.586;13.284;2024-01-10T03:43:49;58.39;54.71;74.37;;
85141;Laerm;75501;52.586;13.284;2024-01-10T03:46:18;59.34;55.07;74.82;;
85141;Laerm;75501;52.586;13.284;2024-01-10T03:48:46;58.80;54.65;73.48;;
85141;Laerm;75501;52.586;13.284;2024-01-10T03:51:18;58.59;54.58;68.22;;
85141;Laerm;75501;52.586;13.284;2024-01-10T03:53:46;58.59;54.52;67.58;;
85141;Laerm;75501;52.586;13.284;2024-01-10T03:56:16;58.48;54.60;67.74;;
85141;Laerm;75501;52.586;13.284;2024-01-10T03:58:44;59.15;54.75;72.59;;
85141;Laerm;75501;52.586;13.284;2024-01-10T04:01:15;63.56;56.29;71.00;;
85141;Laerm;75501;52.586;13.284;2024-01-10T04:03:43;62.87;57.04;74.17;;
85141;Laerm;75501;52.586;13.284;2024-01-10T04:06:11;61.13;56.09;74.15;;
85141;Laerm;75501;52.586;13.284;2024-01-10T04:08:41;60.45;55.91;75.12;;
85141;Laerm;75501;52.586;13.284;2024-01-10T04:11:09;59.58;55.72;68.47;;
85141;Laerm;75501;52.586;13.284;2024-01-10T04:13:37;59.30;55.09;74.58;;
85141;Laerm;75501;52.586;13.284;2024-01-10T04:16:06;59.38;55.11;74.86;;
85141;Laerm;75501;52.586;13.284;2024-01-10T04:18:34;59.12;54.98;68.30;;
85141;Laerm;75501;52.586;13.284;2024-01-10T04:21:03;60.62;55.10;74.71;;
85141;Laerm;75501;52.586;13.284;2024-01-10T04:23:31;59.61;54.99;74.52;;
85141;Laerm;75501;52.586;13.284;2024-01-10T04:26:02;59.36;54.81;69.74;;
85141;Laerm;75501;52.586;13.284;2024-01-10T04:28:30;60.55;55.75;69.15;;
85141;Laerm;75501;52.586;13.284;2024-01-10T04:30:58;62.44;57.06;74.99;;
85141;Laerm;75501;52.586;13.284;2024-01-10T04:33:27;63.58;57.38;76.04;;
85141;Laerm;75501;52.586;13.284;2024-01-10T04:35:55;63.00;56.97;75.60;;
85141;Laerm;75501;52.586;13.284;2024-01-10T04:38:23;62.43;57.16;75.15;;
85141;Laerm;75501;52.586;13.284;2024-01-10T04:40:53;61.97;56.79;69.96;;
85141;Laerm;75501;52.586;13.284;2024-01-10T04:43:23;61.86;56.70;74.70;;
85141;Laerm;75501;52.586;13.284;2024-01-10T04:45:51;61.67;56.20;69.16;;
85141;Laerm;75501;52.586;13.284;2024-01-10T04:48:19;60.46;56.19;75.02;;
85141;Laerm;75501;52.586;13.284;2024-01-10T04:50:48;60.33;55.56;74.82;;
85141;Laerm;75501;52.586;13.284;2024-01-10T04:53:16;59.70;55.27;74.01;;
85141;Laerm;75501;52.586;13.284;2024-01-10T04:55:46;58.78;54.85;68.49;;
85141;Laerm;75501;52.586;13.284;2024-01-10T04:58:17;59.20;54.97;68.21;;
85141;Laerm;75501;52.586;13.284;2024-01-10T05:00:47;59.49;54.87;74.68;;
85141;Laerm;75501;52.586;13.284;2024-01-10T05:03:15;59.01;54.79;69.73;;
85141;Laerm;75501;52.586;13.284;2024-01-10T05:05:44;59.53;55.20;74.79;;
85141;Laerm;75501;52.586;13.284;2024-01-10T05:08:13;59.95;55.58;75.01;;
85141;Laerm;75501;52.586;13.284;2024-01-10T05:10:41;59.98;55.63;75.34;;
85141;Laerm;75501;52.586;13.284;2024-01-10T05:13:09;59.59;55.37;75.33;;
85141;Laerm;75501;52.586;13.284;2024-01-10T05:15:37;59.77;55.51;74.03;;
85141;Laerm;75501;52.586;13.284;2024-01-10T05:18:07;62.83;56.69;74.92;;
85141;Laerm;75501;52.586;13.284;2024-01-10T05:20:35;62.78;56.94;69.49;;
85141;Laerm;75501;52.586;13.284;2024-01-10T05:23:04;62.82;56.98;75.98;;
85141;Laerm;75501;52.586;13.284;2024-01-10T05:25:32;63.05;57.84;75.41;;
85141;Laerm;75501;52.586;13.284;2024-01-10T05:28:01;62.57;57.25;75.94;;
85141;Laerm;75501;52.586;13.284;2024-01-10T05:30:29;63.34;57.27;75.59;;
85141;Laerm;75501;52.586;13.284;2024-01-10T05:32:58;65.75;58.54;72.21;;
85141;Laerm;75501;52.586;13.284;2024-01-10T05:35:28;65.31;58.72;75.48;;
85141;Laerm;75501;52.586;13.284;2024-01-10T05:37:56;63.46;57.40;69.96;;
85141;Laerm;75501;52.586;13.284;2024-01-10T05:40:25;62.94;57.22;75.51;;
85141;Laerm;75501;52.586;13.284;2024-01-10T05:42:56;63.30;57.34;72.40;;
85141;Laerm;75501;52.586;13.284;2024-01-10T05:45:25;62.43;57.18;75.51;;
85141;Laerm;75501;52.586;13.284;2024-01-10T05:47:54;61.06;55.76;75.30;;
85141;Laerm;75501;52.586;13.284;2024-01-10T05:50:22;62.32;56.68;71.57;;
85141;Laerm;75501;52.586;13.284;2024-01-10T05:52:52;62.19;57.33;75.27;;
85141;Laerm;75501;52.586;13.284;2024-01-10T05:55:21;62.04;56.67;70.14;;
85141;Laerm;75501;52.586;13.284;2024-01-10T05:57:50;62.32;57.06;70.28;;
85141;Laerm;75501;52.586;13.284;2024-01-10T06:00:19;63.38;57.79;75.94;;
85141;Laerm;75501;52.586;13.284;2024-01-10T06:02:48;62.71;57.07;70.03;;
85141;Laerm;75501;52.586;13.284;2024-01-10T06:05:16;65.21;58.04;77.06;;
85141;Laerm;75501;52.586;13.284;2024-01-10T06:07:44;64.94;58.51;76.30;;
85141;Laerm;75501;52.586;13.284;2024-01-10T06:10:14;63.31;57.30;76.15;;
85141;Laerm;75501;52.586;13.284;2024-01-10T06:12:42;62.45;57.34;70.42;;
85141;Laerm;75501;52.586;13.284;2024-01-10T06:15:11;61.93;57.23;75.53;;
85141;Laerm;75501;52.586;13.284;2024-01-10T06:17:39;61.33;56.69;74.71;;
85141;Laerm;75501;52.586;13.284;2024-01-10T06:20:09;62.31;57.28;76.02;;
85141;Laerm;75501;52.586;13.284;2024-01-10T06:22:37;62.05;57.09;69.39;;
85141;Laerm;75501;52.586;13.284;2024-01-10T06:25:07;61.88;57.14;74.98;;
85141;Laerm;75501;52.586;13.284;2024-01-10T06:27:37;62.50;57.36;69.49;;
85141;Laerm;75501;52.586;13.284;2024-01-10T06:30:07;63.22;57.49;70.02;;
85141;Laerm;75501;52.586;13.284;2024-01-10T06:32:36;62.65;57.15;69.90;;
85141;Laerm;75501;52.586;13.284;2024-01-10T06:35:05;61.97;56.89;75.85;;
85141;Laerm;75501;52.586;13.284;2024-01-10T06:37:37;62.24;57.37;69.72;;
85141;Laerm;75501;52.586;13.284;2024-01-10T06:40:08;61.19;56.42;68.77;;
85141;Laerm;75501;52.586;13.284;2024-01-10T06:42:38;60.88;56.52;69.43;;
85141;Laerm;75501;52.586;13.284;2024-01-10T06:45:07;61.10;56.52;69.26;;
85141;Laerm;75501;52.586;13.284;2024-01-10T06:47:36;60.72;56.20;69.26;;
85141;Laerm;75501;52.586;13.284;2024-01-10T06:50:06;60.16;55.95;74.52;;
85141;Laerm;75501;52.586;13.284;2024-01-10T06:52:36;59.48;55.20;68.22;;
85141;Laerm;75501;52.586;13.284;2024-01-10T06:55:07;59.36;54.97;74.25;;
85141;Laerm;75501;52.586;13.284;2024-01-10T06:57:35;61.35;56.80;69.84;;
85141;Laerm;75501;52.586;13.284;2024-01-10T07:00:07;61.86;57.03;73.39;;
85141;Laerm;75501;52.586;13.284;2024-01-10T07:02:38;62.09;57.32;69.88;;
85141;Laerm;75501;52.586;13.284;2024-01-10T07:05:08;61.29;56.67;68.63;;
85141;Laerm;75501;52.586;13.284;2024-01-10T07:07:37;59.77;55.57;68.31;;
85141;Laerm;75501;52.586;13.284;2024-01-10T07:10:06;58.57;54.77;74.18;;
85141;Laerm;75501;52.586;13.284;2024-01-10T07:12:34;58.55;54.72;67.67;;
85141;Laerm;75501;52.586;13.284;2024-01-10T07:15:05;59.54;55.09;73.96;;
85141;Laerm;75501;52.586;13.284;2024-01-10T07:17:34;59.65;55.79;69.00;;
85141;Laerm;75501;52.586;13.284;2024-01-10T07:20:03;60.35;56.14;74.67;;
85141;Laerm;75501;52.586;13.284;2024-01-10T07:22:33;60.55;56.39;70.78;;
85141;Laerm;75501;52.586;13.284;2024-01-10T07:25:02;58.98;55.11;69.16;;
85141;Laerm;75501;52.586;13.284;2024-01-10T07:27:33;58.94;54.97;67.95;;
85141;Laerm;75501;52.586;13.284;2024-01-10T07:30:01;58.95;54.99;73.53;;
85141;Laerm;75501;52.586;13.284;2024-01-10T07:32:32;59.16;54.94;68.06;;
85141;Laerm;75501;52.586;13.284;2024-01-10T07:35:01;58.56;54.49;68.27;;
85141;Laerm;75501;52.586;13.284;2024-01-10T07:37:29;58.18;54.47;73.17;;
85141;Laerm;75501;52.586;13.284;2024-01-10T07:39:58;57.97;54.59;66.88;;
85141;Laerm;75501;52.586;13.284;2024-01-10T07:42:27;57.88;54.30;71.90;;
85141;Laerm;75501;52.586;13.284;2024-01-10T07:44:55;58.14;54.34;73.02;;
85141;Laerm;75501;52.586;13.284;2024-01-10T07:47:24;58.28;54.59;74.04;;
85141;Laerm;75501;52.586;13.284;2024-01-10T07:49:54;58.10;54.76;72.09;;
85141;Laerm;75501;52.586;13.284;2024-01-10T07:52:23;57.96;54.63;66.15;;
85141;Laerm;75501;52.586;13.284;2024-01-10T07:54:51;57.63;54.04;72.12;;
85141;Laerm;75501;52.586;13.284;2024-01-10T07:57:20;57.02;53.95;71.69;;
85141;Laerm;75501;52.586;13.284;2024-01-10T07:59:48;56.91;54.00;72.41;;
85141;Laerm;75501;52.586;13.284;2024-01-10T08:02:17;56.92;53.99;72.21;;
85141;Laerm;75501;52.586;13.284;2024-01-10T08:04:46;56.71;53.68;71.77;;
85141;Laerm;75501;52.586;13.284;2024-01-10T08:07:16;56.26;53.78;71.73;;
85141;Laerm;75501;52.586;13.284;2024-01-10T08:09:44;56.49;53.95;65.34;;
85141;Laerm;75501;52.586;13.284;2024-01-10T08:12:13;57.02;53.94;71.93;;
85141;Laerm;75501;52.586;13.284;2024-01-10T08:14:42;56.71;54.08;70.63;;
85141;Laerm;75501;52.586;13.284;2024-01-10T08:17:13;56.59;53.83;65.36;;
85141;Laerm;75501;52.586;13.284;2024-01-10T08:19:42;56.38;53.69;71.77;;
85141;Laerm;75501;52.586;13.284;2024-01-10T08:22:11;56.31;53.67;63.85;;
85141;Laerm;75501;52.586;13.284;2024-01-10T08:24:41;56.14;53.58;63.77;;
85141;Laerm;75501;52.586;13.284;2024-01-10T08:27:12;56.47;53.86;64.59;;
85141;Laerm;75501;52.586;13.284;2024-01-10T08:29:40;57.42;54.10;72.46;;
85141;Laerm;75501;52.586;13.284;2024-01-10T08:32:08;57.91;54.06;67.73;;
85141;Laerm;75501;52.586;13.284;2024-01-10T08:34:36;58.78;55.01;74.63;;
85141;Laerm;75501;52.586;13.284;2024-01-10T08:37:05;58.52;55.07;63.12;;
85141;Laerm;75501;52.586;13.284;2024-01-10T08:39:34;57.81;54.18;61.43;;
85141;Laerm;75501;52.586;13.284;2024-01-10T08:42:04;58.22;54.84;73.45;;
85141;Laerm;75501;52.586;13.284;2024-01-10T08:44:36;57.62;54.62;66.32;;
85141;Laerm;75501;52.586;13.284;2024-01-10T08:47:05;56.94;54.20;71.87;;
85141;Laerm;75501;52.586;13.284;2024-01-10T08:49:33;56.64;54.17;71.57;;
85141;Laerm;75501;52.586;13.284;2024-01-10T08:52:02;56.29;54.01;71.30;;
85141;Laerm;75501;52.586;13.284;2024-01-10T08:54:30;56.34;53.92;71.95;;
85141;Laerm;75501;52.586;13.284;2024-01-10T08:56:58;57.15;54.47;72.45;;
85141;Laerm;75501;52.586;13.284;2024-01-10T08:59:29;57.59;54.70;71.33;;
85141;Laerm;75501;52.586;13.284;2024-01-10T09:01:57;57.51;54.49;65.63;;
85141;Laerm;75501;52.586;13.284;2024-01-10T09:04:26;57.62;54.88;72.92;;
85141;Laerm;75501;52.586;13.284;2024-01-10T09:06:54;57.39;54.54;72.66;;
85141;Laerm;75501;52.586;13.284;2024-01-10T09:09:24;56.89;54.08;65.55;;
85141;Laerm;75501;52.586;13.284;2024-01-10T09:11:52;56.41;54.25;70.71;;
85141;Laerm;75501;52.586;13.284;2024-01-10T09:14:21;56.61;54.09;71.31;;
85141;Laerm;75501;52.586;13.284;2024-01-10T09:16:51;56.27;53.92;71.15;;
85141;Laerm;75501;52.586;13.284;2024-01-10T09:19:19;55.90;54.09;62.13;;
85141;Laerm;75501;52.586;13.284;2024-01-10T09:21:48;55.91;53.88;61.41;;
85141;Laerm;75501;52.586;13.284;2024-01-10T09:24:17;55.88;54.04;70.49;;
85141;Laerm;75501;52.586;13.284;2024-01-10T09:26:55;55.76;54.04;69.59;;
85141;Laerm;75501;52.586;13.284;2024-01-10T09:29:24;55.84;53.63;60.20;;
85141;Laerm;75501;52.586;13.284;2024-01-10T09:31:55;55.91;53.71;60.39;;
85141;Laerm;75501;52.586;13.284;2024-01-10T09:34:24;56.02;54.14;59.08;;
85141;Laerm;75501;52.586;13.284;2024-01-10T09:36:52;55.96;54.24;69.23;;
85141;Laerm;75501;52.586;13.284;2024-01-10T09:39:21;55.82;54.20;69.69;;
85141;Laerm;75501;52.586;13.284;2024-01-10T09:41:50;55.60;53.70;58.79;;
85141;Laerm;75501;52.586;13.284;2024-01-10T09:44:20;55.95;53.81;61.90;;
85141;Laerm;75501;52.586;13.284;2024-01-10T09:46:53;56.04;54.07;59.15;;
85141;Laerm;75501;52.586;13.284;2024-01-10T09:49:23;55.66;53.76;58.90;;
85141;Laerm;75501;52.586;13.284;2024-01-10T09:51:58;55.34;53.68;59.81;;
85141;Laerm;75501;52.586;13.284;2024-01-10T09:54:30;55.26;53.64;58.14;;
85141;Laerm;75501;52.586;13.284;2024-01-10T09:56:59;55.64;53.44;59.46;;
85141;Laerm;75501;52.586;13.284;2024-01-10T09:59:27;55.52;53.24;65.61;;
85141;Laerm;75501;52.586;13.284;2024-01-10T10:01:57;55.37;53.21;68.43;;
85141;Laerm;75501;52.586;13.284;2024-01-10T10:04:29;54.78;52.89;58.14;;
85141;Laerm;75501;52.586;13.284;2024-01-10T10:06:59;54.99;52.83;74.68;;
85141;Laerm;75501;52.586;13.284;2024-01-10T10:09:31;54.91;53.01;61.10;;
85141;Laerm;75501;52.586;13.284;2024-01-10T10:12:02;54.93;52.97;58.44;;
85141;Laerm;75501;52.586;13.284;2024-01-10T10:14:32;54.63;52.88;58.41;;
85141;Laerm;75501;52.586;13.284;2024-01-10T10:17:17;54.69;52.57;63.97;;
85141;Laerm;75501;52.586;13.284;2024-01-10T10:19:47;54.77;52.59;58.99;;
85141;Laerm;75501;52.586;13.284;2024-01-10T10:22:15;54.71;52.51;60.01;;
85141;Laerm;75501;52.586;13.284;2024-01-10T10:24:48;54.32;52.19;64.75;;
85141;Laerm;75501;52.586;13.284;2024-01-10T10:27:17;54.01;52.20;57.12;;
85141;Laerm;75501;52.586;13.284;2024-01-10T10:29:45;54.13;52.03;63.79;;
85141;Laerm;75501;52.586;13.284;2024-01-10T10:32:15;53.90;52.10;56.62;;
85141;Laerm;75501;52.586;13.284;2024-01-10T10:34:46;53.76;51.91;58.12;;
85141;Laerm;75501;52.586;13.284;2024-01-10T10:37:16;54.38;51.75;62.85;;
85141;Laerm;75501;52.586;13.284;2024-01-10T10:39:44;54.48;51.89;58.60;;
85141;Laerm;75501;52.586;13.284;2024-01-10T10:42:14;54.25;51.78;57.60;;
85141;Laerm;75501;52.586;13.284;2024-01-10T10:44:43;54.18;51.54;63.55;;
85141;Laerm;75501;52.586;13.284;2024-01-10T10:47:14;54.06;51.57;58.28;;
85141;Laerm;75501;52.586;13.284;2024-01-10T10:49:52;53.42;51.45;57.54;;
85141;Laerm;75501;52.586;13.284;2024-01-10T10:52:22;53.68;51.37;60.64;;
85141;Laerm;75501;52.586;13.284;2024-01-10T10:54:51;53.16;51.24;57.74;;
85141;Laerm;75501;52.586;13.284;2024-01-10T10:57:22;53.23;51.16;58.04;;
85141;Laerm;75501;52.586;13.284;2024-01-10T10:59:53;53.55;51.37;58.39;;
85141;Laerm;75501;52.586;13.284;2024-01-10T11:02:23;53.80;51.52;57.30;;
85141;Laerm;75501;52.586;13.284;2024-01-10T11:04:59;55.63;51.35;70.96;;
85141;Laerm;75501;52.586;13.284;2024-01-10T11:07:30;53.53;51.42;57.71;;
85141;Laerm;75501;52.586;13.284;2024-01-10T11:09:59;53.61;51.41;58.67;;
85141;Laerm;75501;52.586;13.284;2024-01-10T11:12:47;53.12;51.15;57.08;;
85141;Laerm;75501;52.586;13.284;2024-01-10T11:15:38;53.51;51.06;59.36;;
85141;Laerm;75501;52.586;13.284;2024-01-10T11:18:21;53.39;51.12;57.47;;
85141;Laerm;75501;52.586;13.284;2024-01-10T11:21:13;52.80;51.13;57.89;;
85141;Laerm;75501;52.586;13.284;2024-01-10T11:23:49;53.31;51.41;56.99;;
85141;Laerm;75501;52.586;13.284;2024-01-10T11:26:19;53.21;50.97;57.24;;
85141;Laerm;75501;52.586;13.284;2024-01-10T11:28:48;52.88;51.11;57.57;;
85141;Laerm;75501;52.586;13.284;2024-01-10T11:31:27;53.05;51.20;58.45;;
85141;Laerm;75501;52.586;13.284;2024-01-10T11:33:56;53.44;50.98;66.14;;
85141;Laerm;75501;52.586;13.284;2024-01-10T11:36:26;52.85;51.14;56.69;;
85141;Laerm;75501;52.586;13.284;2024-01-10T11:38:59;52.85;51.07;56.01;;
85141;Laerm;75501;52.586;13.284;2024-01-10T11:41:31;53.32;51.02;68.12;;
85141;Laerm;75501;52.586;13.284;2024-01-10T11:44:27;53.50;51.17;57.39;;
85141;Laerm;75501;52.586;13.284;2024-01-10T11:46:56;52.98;50.99;57.39;;
85141;Laerm;75501;52.586;13.284;2024-01-10T11:49:25;53.45;51.02;58.24;;
85141;Laerm;75501;52.586;13.284;2024-01-10T11:51:56;53.30;51.19;57.27;;
85141;Laerm;75501;52.586;13.284;2024-01-10T11:54:36;53.43;50.92;58.03;;
85141;Laerm;75501;52.586;13.284;2024-01-10T11:57:08;52.89;50.62;55.94;;
85141;Laerm;75501;52.586;13.284;2024-01-10T11:59:37;53.32;51.32;58.09;;
85141;Laerm;75501;52.586;13.284;2024-01-10T12:02:06;53.42;51.08;65.25;;
85141;Laerm;75501;52.586;13.284;2024-01-10T12:04:34;53.62;51.31;60.96;;
85141;Laerm;75501;52.586;13.284;2024-01-10T12:07:16;52.93;51.17;57.43;;
85141;Laerm;75501;52.586;13.284;2024-01-10T12:09:46;52.68;51.10;57.28;;
85141;Laerm;75501;52.586;13.284;2024-01-10T12:12:14;52.87;50.92;57.44;;
85141;Laerm;75501;52.586;13.284;2024-01-10T12:14:42;53.23;51.18;59.42;;
85141;Laerm;75501;52.586;13.284;2024-01-10T12:17:11;53.30;50.99;58.79;;
85141;Laerm;75501;52.586;13.284;2024-01-10T12:19:39;53.31;50.93;60.46;;
85141;Laerm;75501;52.586;13.284;2024-01-10T12:22:12;52.99;50.99;57.69;;
85141;Laerm;75501;52.586;13.284;2024-01-10T12:24:47;52.92;51.17;56.81;;
85141;Laerm;75501;52.586;13.284;2024-01-10T13:37:56;53.36;50.92;57.09;;
85141;Laerm;75501;52.586;13.284;2024-01-10T13:40:24;53.36;51.16;59.88;;
85141;Laerm;75501;52.586;13.284;2024-01-10T13:42:54;53.37;50.92;69.22;;
85141;Laerm;75501;52.586;13.284;2024-01-10T13:45:22;54.04;51.25;70.32;;
85141;Laerm;75501;52.586;13.284;2024-01-10T13:47:53;53.69;51.17;60.39;;
85141;Laerm;75501;52.586;13.284;2024-01-10T13:50:22;54.54;51.47;69.68;;
85141;Laerm;75501;52.586;13.284;2024-01-10T13:52:51;53.88;51.49;61.33;;
85141;Laerm;75501;52.586;13.284;2024-01-10T13:55:22;53.80;51.44;71.01;;
85141;Laerm;75501;52.586;13.284;2024-01-10T13:57:51;53.52;51.09;60.71;;
85141;Laerm;75501;52.586;13.284;2024-01-10T14:00:20;53.10;51.22;61.60;;
85141;Laerm;75501;52.586;13.284;2024-01-10T14:02:48;53.90;51.47;70.32;;
85141;Laerm;75501;52.586;13.284;2024-01-10T14:05:16;54.06;51.34;61.77;;
85141;Laerm;75501;52.586;13.284;2024-01-10T14:07:44;54.37;51.32;60.84;;
85141;Laerm;75501;52.586;13.284;2024-01-10T14:10:13;54.01;51.31;69.99;;
85141;Laerm;75501;52.586;13.284;2024-01-10T14:12:42;53.44;51.30;60.16;;
85141;Laerm;75501;52.586;13.284;2024-01-10T14:15:10;53.73;51.05;58.88;;
85141;Laerm;75501;52.586;13.284;2024-01-10T14:17:39;54.14;51.40;61.22;;
85141;Laerm;75501;52.586;13.284;2024-01-10T14:20:08;53.71;51.23;69.82;;
85141;Laerm;75501;52.586;13.284;2024-01-10T14:22:37;54.33;51.49;60.24;;
85141;Laerm;75501;52.586;13.284;2024-01-10T14:25:07;54.40;51.74;60.05;;
85141;Laerm;75501;52.586;13.284;2024-01-10T14:27:36;54.00;51.23;71.78;;
85141;Laerm;75501;52.586;13.284;2024-01-10T14:30:08;53.66;51.30;60.00;;
85141;Laerm;75501;52.586;13.284;2024-01-10T14:32:36;53.96;51.31;61.19;;
85141;Laerm;75501;52.586;13.284;2024-01-10T14:35:07;53.42;51.27;69.68;;
85141;Laerm;75501;52.586;13.284;2024-01-10T14:37:36;53.65;51.29;60.73;;
85141;Laerm;75501;52.586;13.284;2024-01-10T14:40:05;53.75;51.03;59.92;;
85141;Laerm;75501;52.586;13.284;2024-01-10T14:42:34;53.61;51.35;59.79;;
85141;Laerm;75501;52.586;13.284;2024-01-10T14:45:02;54.16;51.37;61.23;;
85141;Laerm;75501;52.586;13.284;2024-01-10T14:47:32;53.95;51.33;69.62;;
85141;Laerm;75501;52.586;13.284;2024-01-10T14:50:00;54.02;51.32;60.09;;
85141;Laerm;75501;52.586;13.284;2024-01-10T14:52:29;53.70;51.50;70.51;;
85141;Laerm;75501;52.586;13.284;2024-01-10T14:54:57;53.60;51.23;57.77;;